Aviation Digital Data Service (ADDS)

Output produced by METARs form (0707 UTC 06 July 2015)
found at http://aviationweather.gov/adds/metars/
 
KGSP 060539Z 0606/0706 23004KT P6SM SCT090 
     FM061400 24006KT P6SM SCT040 
     FM061900 24007KT P6SM SCT050 BKN080 
     PROB30 0619/0623 4SM -TSRA BKN040CB 
     FM070200 23003KT P6SM FEW080